Time;durP1;ratioP1;P1;durP2;ratioP2;P2;SDS_P1;SDS_P2;PMS_P1;PMS_P2;Temp;Humidity;BMP_temperature;BMP_pressure;BME280_temperature;BME280_humidity;BME280_pressure;Samples;Min_cycle;Max_cycle;Signal;HPM_P1;HPM_P2
2023/05/23 00:01:31;;;;;;;27.30;18.70;;;;;;;;;;6216273;23;20017;-75
2023/05/23 00:03:58;;;;;;;25.83;19.10;;;;;;;;;;6215867;23;20013;-74
2023/05/23 00:06:26;;;;;;;26.55;19.15;;;;;;;;;;6216025;23;20017;-74
2023/05/23 00:08:53;;;;;;;29.10;19.67;;;;;;;;;;6215612;23;20519;-75
2023/05/23 00:11:25;;;;;;;27.67;20.00;;;;;;;;;;6216106;23;20322;-75
2023/05/23 00:13:54;;;;;;;28.10;19.25;;;;;;;;;;6216625;23;20036;-75
2023/05/23 00:16:21;;;;;;;29.35;18.60;;;;;;;;;;6216753;23;20013;-75
2023/05/23 00:18:50;;;;;;;28.23;19.77;;;;;;;;;;6216849;23;20028;-74
2023/05/23 00:21:17;;;;;;;26.52;18.38;;;;;;;;;;6216557;23;20437;-75
2023/05/23 00:23:44;;;;;;;24.02;17.50;;;;;;;;;;6216610;23;20386;-75
2023/05/23 00:26:13;;;;;;;20.10;16.60;;;;;;;;;;6216582;23;20301;-74
2023/05/23 00:28:42;;;;;;;20.08;15.38;;;;;;;;;;6216691;23;20040;-75
2023/05/23 00:31:09;;;;;;;22.30;16.52;;;;;;;;;;6189913;23;20024;-75
2023/05/23 00:33:37;;;;;;;23.23;16.20;;;;;;;;;;6216629;23;20055;-74
2023/05/23 00:36:04;;;;;;;21.23;15.02;;;;;;;;;;6216743;23;20157;-74
2023/05/23 00:38:34;;;;;;;20.70;14.50;;;;;;;;;;6216424;23;20056;-74
2023/05/23 00:41:03;;;;;;;19.40;13.07;;;;;;;;;;6216563;23;20032;-74
2023/05/23 00:43:30;;;;;;;18.08;13.05;;;;;;;;;;6216806;23;20024;-74
2023/05/23 00:45:57;;;;;;;17.20;12.57;;;;;;;;;;6216800;23;20382;-74
2023/05/23 00:48:27;;;;;;;18.95;13.57;;;;;;;;;;6216452;23;20235;-74
2023/05/23 00:50:54;;;;;;;18.52;14.00;;;;;;;;;;6216300;23;20016;-74
2023/05/23 00:53:22;;;;;;;17.40;12.95;;;;;;;;;;6216694;23;20019;-74
2023/05/23 00:55:49;;;;;;;17.55;12.93;;;;;;;;;;6216918;23;20021;-74
2023/05/23 00:58:17;;;;;;;15.40;11.35;;;;;;;;;;6216281;23;20013;-74
2023/05/23 01:00:44;;;;;;;;;;;;;;;;;;6216736;23;20017;-74
2023/05/23 01:03:16;;;;;;;14.73;11.40;;;;;;;;;;6216200;23;19919;-74
2023/05/23 01:05:44;;;;;;;14.73;12.35;;;;;;;;;;6216624;23;20071;-74
2023/05/23 01:08:11;;;;;;;;;;;;;;;;;;6217145;23;20020;-75
2023/05/23 01:10:38;;;;;;;16.45;12.95;;;;;;;;;;6215955;23;19916;-74
2023/05/23 01:13:18;;;;;;;17.90;12.95;;;;;;;;;;6215553;23;20070;-75
2023/05/23 01:15:45;;;;;;;17.73;12.82;;;;;;;;;;6214970;23;20313;-75
2023/05/23 01:18:18;;;;;;;15.23;13.38;;;;;;;;;;6215171;23;20456;-75
2023/05/23 01:20:55;;;;;;;16.90;13.18;;;;;;;;;;6216000;23;20462;-75
2023/05/23 01:23:41;;;;;;;15.10;13.43;;;;;;;;;;6216149;23;20034;-75
2023/05/23 01:26:33;;;;;;;17.70;12.45;;;;;;;;;;6216202;23;20066;-75
2023/05/23 01:29:24;;;;;;;16.33;13.30;;;;;;;;;;6216147;23;20012;-74
2023/05/23 01:31:53;;;;;;;16.30;13.68;;;;;;;;;;6174282;23;20012;-75
2023/05/23 01:34:23;;;;;;;17.58;13.95;;;;;;;;;;6216160;23;20012;-75
2023/05/23 01:36:55;;;;;;;16.70;11.98;;;;;;;;;;6216235;23;20024;-75
2023/05/23 01:39:24;;;;;;;15.95;12.60;;;;;;;;;;6216266;23;20365;-76
2023/05/23 01:41:53;;;;;;;16.02;12.02;;;;;;;;;;6216137;23;20075;-75
2023/05/23 01:44:20;;;;;;;13.07;10.98;;;;;;;;;;6215973;23;20076;-75
2023/05/23 01:46:46;;;;;;;12.43;10.75;;;;;;;;;;6216334;23;20016;-75
2023/05/23 01:49:13;;;;;;;13.45;10.43;;;;;;;;;;6215701;23;20526;-75
2023/05/23 01:51:40;;;;;;;11.23;10.07;;;;;;;;;;6216080;23;20020;-74
2023/05/23 01:54:06;;;;;;;10.73;9.60;;;;;;;;;;6216178;23;20343;-74
2023/05/23 01:56:32;;;;;;;12.93;10.18;;;;;;;;;;6215873;23;20087;-74
2023/05/23 01:58:58;;;;;;;11.65;9.77;;;;;;;;;;6216018;23;20080;-74
2023/05/23 02:01:24;;;;;;;12.20;9.45;;;;;;;;;;6215456;23;20464;-75
2023/05/23 02:03:50;;;;;;;11.43;10.32;;;;;;;;;;6215861;23;20024;-74
2023/05/23 02:06:16;;;;;;;11.30;9.95;;;;;;;;;;6215470;23;20077;-75
2023/05/23 02:08:42;;;;;;;12.25;11.05;;;;;;;;;;6215644;23;20084;-75
2023/05/23 02:11:09;;;;;;;15.68;12.48;;;;;;;;;;6215547;23;20318;-75
2023/05/23 02:13:37;;;;;;;14.38;12.65;;;;;;;;;;6189023;23;20017;-74
2023/05/23 02:16:03;;;;;;;;;;;;;;;;;;6216096;23;20016;-74
2023/05/23 02:18:29;;;;;;;17.30;14.27;;;;;;;;;;6188852;23;19974;-75
2023/05/23 02:20:55;;;;;;;15.05;11.77;;;;;;;;;;6214930;23;20021;-75
2023/05/23 02:23:22;;;;;;;18.08;13.38;;;;;;;;;;6214465;23;20044;-77
2023/05/23 02:25:51;;;;;;;21.70;14.80;;;;;;;;;;6215459;23;20017;-74
2023/05/23 02:28:18;;;;;;;22.50;15.57;;;;;;;;;;6188367;23;20016;-75
2023/05/23 02:30:47;;;;;;;19.15;13.20;;;;;;;;;;6215364;23;20088;-74
2023/05/23 02:33:15;;;;;;;18.88;12.02;;;;;;;;;;6214961;23;20432;-74
2023/05/23 02:35:41;;;;;;;18.02;12.30;;;;;;;;;;6215249;23;20459;-74
2023/05/23 02:38:07;;;;;;;18.73;11.68;;;;;;;;;;6215939;23;20048;-74
2023/05/23 02:40:33;;;;;;;15.60;12.25;;;;;;;;;;6215692;23;20024;-75
2023/05/23 02:42:59;;;;;;;23.00;12.65;;;;;;;;;;6215668;23;20012;-75
2023/05/23 02:45:25;;;;;;;21.25;13.35;;;;;;;;;;6215905;23;20078;-75
2023/05/23 02:47:51;;;;;;;22.52;13.85;;;;;;;;;;6216661;23;20475;-76
2023/05/23 02:50:17;;;;;;;25.17;13.10;;;;;;;;;;6217191;23;20047;-76
2023/05/23 02:52:43;;;;;;;23.60;14.05;;;;;;;;;;6217719;23;20017;-76
2023/05/23 02:55:09;;;;;;;23.65;13.57;;;;;;;;;;6217655;23;20016;-75
2023/05/23 02:57:35;;;;;;;24.27;14.80;;;;;;;;;;6216880;23;20735;-76
2023/05/23 03:00:01;;;;;;;25.67;14.23;;;;;;;;;;6216904;23;20020;-76
2023/05/23 03:02:27;;;;;;;23.90;14.00;;;;;;;;;;6217309;23;20013;-75
2023/05/23 03:04:54;;;;;;;26.70;13.93;;;;;;;;;;6216612;23;20114;-76
2023/05/23 03:07:20;;;;;;;24.97;13.63;;;;;;;;;;6217012;23;20033;-76
2023/05/23 03:09:46;;;;;;;25.38;13.35;;;;;;;;;;6216609;23;20052;-76
2023/05/23 03:12:12;;;;;;;24.33;13.73;;;;;;;;;;6217106;23;20449;-76
2023/05/23 03:14:38;;;;;;;22.17;12.98;;;;;;;;;;6216958;23;20052;-76
2023/05/23 03:17:04;;;;;;;19.42;11.88;;;;;;;;;;6216939;23;20016;-76
2023/05/23 03:19:30;;;;;;;21.17;11.10;;;;;;;;;;6217056;23;20020;-76
2023/05/23 03:21:56;;;;;;;20.05;12.00;;;13.20;99.90;;;;;;6216562;23;20028;-76
2023/05/23 03:24:22;;;;;;;18.15;12.10;;;13.20;99.90;;;;;;6216825;23;20025;-76
2023/05/23 03:26:47;;;;;;;18.13;11.35;;;13.30;99.90;;;;;;6216823;23;20052;-76
2023/05/23 03:29:13;;;;;;;20.73;10.88;;;12.90;99.90;;;;;;6164861;23;20013;-76
2023/05/23 03:31:38;;;;;;;19.38;11.60;;;13.10;99.90;;;;;;6189759;23;20074;-76
2023/05/23 03:34:04;;;;;;;17.83;10.98;;;13.00;99.90;;;;;;6188863;23;20013;-75
2023/05/23 03:36:32;;;;;;;16.48;11.07;;;13.00;99.90;;;;;;6215738;23;20079;-75
2023/05/23 03:38:58;;;;;;;15.93;10.60;;;13.00;99.90;;;;;;6189525;23;20028;-76
2023/05/23 03:41:25;;;;;;;20.95;11.25;;;13.10;99.90;;;;;;6216024;23;20016;-75
2023/05/23 03:43:50;;;;;;;24.45;11.35;;;13.10;99.90;;;;;;6216574;23;20036;-74
2023/05/23 03:46:16;;;;;;;19.95;11.85;;;12.90;99.90;;;;;;6216212;23;20629;-75
2023/05/23 03:48:42;;;;;;;26.17;12.90;;;12.90;99.90;;;;;;6215488;23;20016;-75
2023/05/23 03:51:07;;;;;;;24.80;13.23;;;12.80;99.90;;;;;;6215294;23;20024;-74
2023/05/23 03:53:33;;;;;;;24.45;11.98;;;13.00;99.90;;;;;;6215553;23;20013;-74
2023/05/23 03:55:58;;;;;;;24.52;12.27;;;12.80;99.90;;;;;;6215734;23;20023;-75
2023/05/23 03:58:24;;;;;;;25.45;11.57;;;12.80;99.90;;;;;;6215740;23;20080;-74
2023/05/23 04:00:51;;;;;;;27.65;12.23;;;12.80;99.90;;;;;;6215475;23;20056;-75
2023/05/23 04:03:17;;;;;;;25.30;11.85;;;12.80;99.90;;;;;;6215933;23;20017;-75
2023/05/23 04:05:43;;;;;;;22.20;11.45;;;12.80;99.90;;;;;;6189273;23;20391;-75
2023/05/23 04:08:08;;;;;;;20.60;11.15;;;12.80;99.90;;;;;;6216097;23;20016;-75
2023/05/23 04:10:34;;;;;;;22.10;11.15;;;12.80;99.90;;;;;;6215555;23;20016;-75
2023/05/23 04:13:00;;;;;;;27.42;12.30;;;12.90;99.90;;;;;;6215864;23;20044;-75
2023/05/23 04:15:26;;;;;;;24.38;11.70;;;12.70;99.90;;;;;;6215677;23;20017;-74
2023/05/23 04:17:53;;;;;;;23.95;10.15;;;12.70;99.90;;;;;;6216905;23;20052;-74
2023/05/23 04:20:18;;;;;;;24.83;10.30;;;12.60;99.90;;;;;;6217146;23;20063;-74
2023/05/23 04:22:44;;;;;;;24.23;11.02;;;12.70;99.90;;;;;;6216443;23;20016;-74
2023/05/23 04:25:10;;;;;;;24.05;10.93;;;12.80;99.90;;;;;;6217276;23;20019;-74
2023/05/23 04:27:38;;;;;;;21.65;9.57;;;12.60;99.90;;;;;;6216950;23;20055;-74
2023/05/23 04:30:06;;;;;;;26.55;10.38;;;12.80;99.90;;;;;;6216913;23;20019;-74
2023/05/23 04:32:31;;;;;;;19.33;10.02;;;12.60;99.90;;;;;;6216602;23;20020;-74
2023/05/23 04:34:57;;;;;;;22.50;10.15;;;12.60;99.90;;;;;;6216357;23;20313;-73
2023/05/23 04:37:24;;;;;;;19.27;9.02;;;12.60;99.90;;;;;;6217556;23;20008;-75
2023/05/23 04:39:51;;;;;;;19.20;10.10;;;12.50;99.90;;;;;;6215826;23;20091;-75
2023/05/23 04:42:17;;;;;;;19.48;10.18;;;12.60;99.90;;;;;;6190187;23;20013;-75
2023/05/23 04:44:42;;;;;;;27.50;10.80;;;12.70;99.90;;;;;;6216832;23;20009;-75
2023/05/23 04:47:08;;;;;;;17.50;9.32;;;12.60;99.90;;;;;;6216550;23;20515;-74
2023/05/23 04:49:36;;;;;;;15.88;10.30;;;12.80;99.90;;;;;;6216192;23;20008;-74
2023/05/23 04:52:01;;;;;;;19.25;9.85;;;12.60;99.90;;;;;;6216397;23;20373;-74
2023/05/23 04:54:27;;;;;;;23.02;10.10;;;12.60;99.90;;;;;;6216595;23;20016;-74
2023/05/23 04:56:52;;;;;;;17.95;9.02;;;12.60;99.90;;;;;;6164968;23;20016;-74
2023/05/23 04:59:18;;;;;;;17.95;9.30;;;12.60;99.90;;;;;;6216601;23;20019;-75
2023/05/23 05:01:44;;;;;;;21.10;9.88;;;12.60;99.90;;;;;;6216157;23;20017;-75
2023/05/23 05:04:09;;;;;;;17.65;9.10;;;12.80;99.90;;;;;;6216332;23;20013;-74
2023/05/23 05:06:35;;;;;;;13.35;8.07;;;12.60;99.90;;;;;;6216075;23;20350;-74
2023/05/23 05:09:01;;;;;;;21.83;9.50;;;12.60;99.90;;;;;;6216140;23;20087;-74
2023/05/23 05:11:27;;;;;;;15.98;8.27;;;12.60;99.90;;;;;;6215552;23;20086;-74
2023/05/23 05:13:53;;;;;;;19.15;6.80;;;12.60;99.90;;;;;;6216492;23;20028;-74
2023/05/23 05:16:18;;;;;;;16.80;5.93;;;12.50;99.90;;;;;;6215257;23;20333;-74
2023/05/23 05:18:44;;;;;;;13.10;5.55;;;12.40;99.90;;;;;;6214955;23;20095;-74
2023/05/23 05:21:09;;;;;;;14.70;6.20;;;12.40;99.90;;;;;;6214417;23;20020;-74
2023/05/23 05:23:35;;;;;;;15.27;7.60;;;12.40;99.90;;;;;;6214593;23;20022;-74
2023/05/23 05:26:02;;;;;;;20.08;7.78;;;12.40;99.90;;;;;;6216213;23;20024;-75
2023/05/23 05:28:27;;;;;;;19.77;7.82;;;12.30;99.90;;;;;;6216248;23;20016;-75
2023/05/23 05:30:53;;;;;;;17.48;7.63;;;12.30;99.90;;;;;;6216401;23;20019;-75
2023/05/23 05:33:22;;;;;;;12.90;6.88;;;12.40;99.90;;;;;;6164571;23;20421;-75
2023/05/23 05:35:48;;;;;;;18.63;7.10;;;12.40;99.90;;;;;;6217484;23;20020;-75
2023/05/23 05:38:14;;;;;;;16.60;6.85;;;12.30;99.90;;;;;;6189647;23;20413;-74
2023/05/23 05:40:40;;;;;;;17.02;6.55;;;12.40;99.90;;;;;;6189021;23;20020;-74
2023/05/23 05:43:05;;;;;;;12.50;5.55;;;12.30;99.90;;;;;;6214196;23;20059;-74
2023/05/23 05:45:31;;;;;;;16.55;6.35;;;12.40;99.90;;;;;;6215006;23;20086;-75
2023/05/23 05:47:57;;;;;;;12.50;5.60;;;12.30;99.90;;;;;;6216010;23;20036;-74
2023/05/23 05:50:23;;;;;;;15.68;7.13;;;12.30;99.90;;;;;;6216148;23;20012;-74
2023/05/23 05:52:49;;;;;;;15.38;6.55;;;12.30;99.90;;;;;;6215772;23;20028;-74
2023/05/23 05:55:14;;;;;;;13.13;5.50;;;12.30;99.90;;;;;;6215619;23;20094;-74
2023/05/23 05:57:40;;;;;;;11.02;4.88;;;12.20;99.90;;;;;;6216104;23;20028;-74
2023/05/23 06:00:12;;;;;;;13.43;5.70;;;12.10;99.90;;;;;;6216219;23;20112;-74
2023/05/23 06:02:41;;;;;;;12.68;6.57;;;12.10;99.90;;;;;;6215920;23;20012;-75
2023/05/23 06:05:11;;;;;;;15.70;6.20;;;12.10;99.90;;;;;;6216110;23;20329;-75
2023/05/23 06:07:40;;;;;;;14.43;7.25;;;12.20;99.90;;;;;;6188793;23;20432;-75
2023/05/23 06:10:07;;;;;;;17.73;7.50;;;12.10;99.90;;;;;;6215714;23;20179;-76
2023/05/23 06:12:36;;;;;;;21.02;7.85;;;12.20;99.90;;;;;;6215901;23;20012;-75
2023/05/23 06:15:01;;;;;;;17.42;7.65;;;12.10;99.90;;;;;;6188813;23;20013;-75
2023/05/23 06:17:27;;;;;;;12.88;6.45;;;12.10;99.90;;;;;;6215974;23;20084;-75
2023/05/23 06:19:53;;;;;;;21.77;8.00;;;12.00;99.90;;;;;;6188908;23;20075;-74
2023/05/23 06:22:19;;;;;;;17.58;8.30;;;12.00;99.90;;;;;;6215909;23;20009;-75
2023/05/23 06:24:45;;;;;;;23.00;9.55;;;12.10;99.90;;;;;;6214360;23;20373;-75
2023/05/23 06:27:11;;;;;;;16.88;7.60;;;11.80;99.90;;;;;;6215448;23;20017;-75
2023/05/23 06:29:37;;;;;;;21.63;8.13;;;11.90;99.90;;;;;;6215687;23;20341;-75
2023/05/23 06:32:03;;;;;;;15.75;8.00;;;11.80;99.90;;;;;;6214967;23;20063;-74
2023/05/23 06:34:29;;;;;;;18.70;7.95;;;;;;;;;;6215360;23;20453;-75
2023/05/23 06:36:55;;;;;;;13.90;6.97;;;11.60;99.90;;;;;;6215712;23;20016;-74
2023/05/23 06:39:21;;;;;;;16.05;7.40;;;;;;;;;;6215524;23;20008;-75
2023/05/23 06:41:47;;;;;;;8.18;5.07;;;11.70;99.90;;;;;;6215807;23;20020;-74
2023/05/23 06:44:13;;;;;;;13.70;6.03;;;12.00;99.90;;;;;;6189078;23;20457;-74
2023/05/23 06:46:38;;;;;;;18.45;6.45;;;11.60;99.90;;;;;;6215428;23;20013;-74
2023/05/23 06:49:04;;;;;;;18.50;7.57;;;11.70;99.90;;;;;;6163234;23;20092;-74
2023/05/23 06:51:30;;;;;;;13.38;7.35;;;11.70;99.90;;;;;;6215007;23;20074;-75
2023/05/23 06:53:56;;;;;;;13.32;5.85;;;12.10;99.90;;;;;;6215721;23;20023;-74
2023/05/23 06:56:24;;;;;;;12.10;5.80;;;12.00;99.90;;;;;;6215662;23;20095;-75
2023/05/23 06:58:50;;;;;;;17.15;7.07;;;11.90;99.90;;;;;;6188991;23;20025;-74
2023/05/23 07:01:16;;;;;;;12.15;6.50;;;11.80;99.90;;;;;;6215356;23;20454;-75
2023/05/23 07:03:44;;;;;;;8.95;4.70;;;11.80;99.90;;;;;;6215077;23;20056;-74
2023/05/23 07:06:11;;;;;;;;;;;;;;;;;;6216084;23;20021;-76
2023/05/23 07:08:39;;;;;;;11.57;5.13;;;;;;;;;;6188587;23;19926;-76
2023/05/23 07:11:05;;;;;;;11.15;5.60;;;11.50;99.90;;;;;;6215668;23;20024;-75
2023/05/23 07:13:31;;;;;;;9.57;5.18;;;11.80;99.90;;;;;;6215858;23;20017;-75
2023/05/23 07:15:57;;;;;;;14.25;5.80;;;11.70;99.90;;;;;;6217426;23;20322;-79
2023/05/23 07:18:23;;;;;;;11.55;4.65;;;11.80;99.90;;;;;;6217083;23;20100;-77
2023/05/23 07:20:48;;;;;;;15.02;4.75;;;11.80;99.90;;;;;;6216112;23;20027;-75
2023/05/23 07:23:15;;;;;;;11.75;4.22;;;11.80;99.90;;;;;;6188782;23;20012;-75
2023/05/23 07:25:41;;;;;;;8.00;3.20;;;12.10;99.90;;;;;;6216358;23;20016;-77
2023/05/23 07:28:07;;;;;;;9.73;3.58;;;11.90;99.90;;;;;;6215966;23;20090;-73
2023/05/23 07:30:33;;;;;;;14.20;3.88;;;12.20;99.90;;;;;;6215272;23;20012;-74
2023/05/23 07:32:58;;;;;;;10.48;3.85;;;12.20;99.90;;;;;;6215354;23;20023;-74
2023/05/23 07:35:25;;;;;;;12.07;3.13;;;12.30;99.90;;;;;;6217438;23;20084;-75
2023/05/23 07:37:52;;;;;;;14.70;3.78;;;12.20;99.90;;;;;;6217102;23;20078;-76
2023/05/23 07:40:17;;;;;;;10.98;3.60;;;12.20;99.90;;;;;;6218236;23;20020;-76
2023/05/23 07:42:43;;;;;;;15.27;4.28;;;12.20;99.90;;;;;;6190681;23;20337;-75
2023/05/23 07:45:09;;;;;;;9.95;3.30;;;12.20;99.90;;;;;;6217441;23;20012;-75
2023/05/23 07:47:35;;;;;;;14.32;4.05;;;12.30;99.90;;;;;;6216295;23;20397;-75
2023/05/23 07:50:01;;;;;;;17.67;3.88;;;12.40;99.90;;;;;;6216539;23;20024;-76
2023/05/23 07:52:29;;;;;;;12.57;3.80;;;;;;;;;;6189755;23;20017;-76
2023/05/23 07:54:55;;;;;;;17.55;4.22;;;;;;;;;;6216488;23;20020;-78
2023/05/23 07:57:23;;;;;;;14.48;3.35;;;;;;;;;;6216106;23;20130;-75
2023/05/23 07:59:49;;;;;;;14.43;3.63;;;12.90;99.90;;;;;;6189030;23;20514;-76
2023/05/23 08:02:15;;;;;;;10.15;3.20;;;12.90;99.90;;;;;;6216670;23;20099;-74
2023/05/23 08:04:40;;;;;;;15.10;3.97;;;13.00;99.90;;;;;;6216744;23;20055;-75
2023/05/23 08:07:07;;;;;;;12.25;3.35;;;;;;;;;;6215966;23;20464;-74
2023/05/23 08:09:33;;;;;;;15.05;3.72;;;;;;;;;;6214495;23;20452;-74
2023/05/23 08:11:59;;;;;;;14.13;4.05;;;;;;;;;;6214186;23;20020;-75
2023/05/23 08:14:25;;;;;;;17.95;3.88;;;;;;;;;;6213476;23;20473;-74
2023/05/23 08:16:51;;;;;;;18.20;4.40;;;;;;;;;;6214172;23;20023;-74
2023/05/23 08:19:17;;;;;;;16.98;4.32;;;;;;;;;;6213148;23;20017;-74
2023/05/23 08:21:43;;;;;;;16.17;4.72;;;;;;;;;;6213954;23;20186;-74
2023/05/23 08:24:11;;;;;;;20.23;4.68;;;;;;;;;;6214220;23;20051;-73
2023/05/23 08:26:37;;;;;;;14.40;3.28;;;12.70;99.90;;;;;;6214010;23;20047;-72
2023/05/23 08:29:03;;;;;;;16.17;3.90;;;12.80;99.90;;;;;;6213639;23;20088;-72
2023/05/23 08:31:29;;;;;;;15.63;3.13;;;12.70;99.90;;;;;;6214762;23;20056;-72
2023/05/23 08:33:56;;;;;;;14.68;3.50;;;12.60;99.90;;;;;;6213422;23;20453;-72
2023/05/23 08:36:22;;;;;;;9.40;2.58;;;12.50;99.90;;;;;;6212888;23;20087;-72
2023/05/23 08:38:49;;;;;;;14.35;2.67;;;12.70;99.90;;;;;;6212402;23;20055;-72
2023/05/23 08:41:22;;;;;;;13.95;3.25;;;12.60;99.90;;;;;;6213028;23;20430;-72
2023/05/23 08:43:48;;;;;;;14.80;3.53;;;12.80;99.90;;;;;;6213282;23;20032;-72
2023/05/23 08:46:15;;;;;;;16.58;2.58;;;13.00;99.90;;;;;;6213845;23;20111;-73
2023/05/23 08:48:42;;;;;;;14.98;4.03;;;13.10;99.90;;;;;;6186337;23;20017;-73
2023/05/23 08:51:12;;;;;;;15.45;3.85;;;13.40;99.90;;;;;;6212143;23;20020;-73
2023/05/23 08:53:41;;;;;;;8.90;3.15;;;13.50;99.90;;;;;;6215248;23;20322;-72
2023/05/23 08:56:08;;;;;;;17.45;4.50;;;13.30;99.90;;;;;;6214384;23;20370;-73
2023/05/23 08:58:34;;;;;;;13.85;3.67;;;13.40;99.90;;;;;;6215531;23;20017;-72
2023/05/23 09:01:00;;;;;;;14.85;4.03;;;13.70;99.90;;;;;;6213208;23;20087;-72
2023/05/23 09:03:26;;;;;;;19.25;3.92;;;13.50;99.90;;;;;;6212365;23;20097;-72
2023/05/23 09:05:56;;;;;;;13.55;3.40;;;13.70;99.90;;;;;;6183146;23;20024;-73
2023/05/23 09:08:23;;;;;;;17.77;4.10;;;13.70;99.90;;;;;;6209878;23;20082;-73
2023/05/23 09:10:49;;;;;;;12.13;3.87;;;13.50;99.90;;;;;;6210941;23;20020;-73
2023/05/23 09:13:16;;;;;;;21.13;4.15;;;14.00;99.90;;;;;;6212843;23;20013;-73
2023/05/23 09:16:01;;;;;;;14.15;3.75;;;14.40;99.90;;;;;;6211502;23;20048;-73
2023/05/23 09:18:33;;;;;;;14.77;3.85;;;14.50;99.90;;;;;;6181388;23;20170;-73
2023/05/23 09:21:00;;;;;;;16.20;3.83;;;14.50;99.90;;;;;;6208373;23;20150;-73
2023/05/23 09:23:27;;;;;;;8.23;2.53;;;14.40;99.90;;;;;;6208590;23;20028;-73
2023/05/23 09:25:53;;;;;;;;;;;14.20;99.90;;;;;;6210159;23;20362;-73
2023/05/23 09:28:19;;;;;;;12.65;3.42;;;14.30;99.90;;;;;;6212445;23;19920;-73
2023/05/23 09:30:44;;;;;;;11.93;3.60;;;14.50;99.90;;;;;;6213000;23;20035;-73
2023/05/23 09:33:13;;;;;;;6.32;2.67;;;14.60;99.90;;;;;;6213270;23;20074;-75
2023/05/23 09:35:44;;;;;;;18.13;4.43;;;14.70;99.90;;;;;;6214725;23;20036;-73
2023/05/23 09:38:10;;;;;;;13.75;4.20;;;14.60;99.90;;;;;;6214867;23;20062;-74
2023/05/23 09:40:35;;;;;;;11.02;2.60;;;14.90;99.90;;;;;;6185606;23;20021;-73
2023/05/23 09:43:03;;;;;;;9.98;3.55;;;15.10;99.90;;;;;;6212220;23;20017;-70
2023/05/23 09:45:30;;;;;;;;;;;15.20;99.90;;;;;;6186891;23;20353;-74
2023/05/23 09:47:55;;;;;;;9.30;2.70;;;15.20;99.90;;;;;;6211384;23;20221;-72
2023/05/23 09:50:21;;;;;;;10.38;3.53;;;15.20;99.90;;;;;;6212878;23;20009;-72
2023/05/23 09:52:47;;;;;;;17.38;3.88;;;15.30;99.90;;;;;;6187389;23;20328;-72
2023/05/23 09:55:13;;;;;;;12.10;3.75;;;15.40;99.90;;;;;;6214656;23;20066;-71
2023/05/23 09:57:43;;;;;;;12.35;3.53;;;15.70;99.90;;;;;;6215668;23;20092;-72
2023/05/23 10:00:12;;;;;;;9.45;3.25;;;15.80;99.90;;;;;;6216329;23;20019;-72
2023/05/23 10:03:00;;;;;;;12.57;3.65;;;16.00;99.90;;;;;;6215374;23;20020;-72
2023/05/23 10:05:50;;;;;;;7.50;2.38;;;15.60;99.90;;;;;;6186989;23;20449;-72
2023/05/23 10:08:26;;;;;;;15.13;3.90;;;15.50;99.90;;;;;;6214452;23;20009;-72
2023/05/23 10:10:58;;;;;;;11.88;2.88;;;;;;;;;;6215300;23;20024;-72
2023/05/23 10:13:27;;;;;;;12.48;3.75;;;15.20;99.90;;;;;;6215026;23;20013;-72
2023/05/23 10:16:13;;;;;;;13.93;3.38;;;15.40;99.90;;;;;;6215216;23;20023;-72
2023/05/23 10:18:43;;;;;;;11.55;3.35;;;15.60;99.90;;;;;;6214946;23;20457;-72
2023/05/23 10:21:14;;;;;;;10.15;3.47;;;15.50;99.90;;;;;;6215007;23;20013;-72
2023/05/23 10:23:41;;;;;;;11.20;3.20;;;15.50;99.90;;;;;;6214082;23;20021;-72
2023/05/23 10:26:07;;;;;;;17.15;3.28;;;15.70;99.90;;;;;;6214663;23;20353;-72
2023/05/23 10:28:33;;;;;;;12.02;3.47;;;15.60;99.90;;;;;;6215292;23;20044;-72
2023/05/23 10:30:59;;;;;;;12.40;3.80;;;16.10;99.90;;;;;;6215073;23;20021;-72
2023/05/23 10:33:29;;;;;;;11.05;3.15;;;16.50;99.90;;;;;;6214110;23;20035;-72
2023/05/23 10:36:15;;;;;;;8.98;3.22;;;16.70;99.90;;;;;;6214618;23;20120;-72
2023/05/23 10:38:50;;;;;;;10.57;3.13;;;16.50;99.90;;;;;;6215055;23;20016;-72
2023/05/23 10:41:24;;;;;;;11.07;3.17;;;16.20;99.90;;;;;;6214562;23;20067;-72
2023/05/23 10:44:11;;;;;;;10.77;3.13;;;16.00;99.90;;;;;;6215014;23;20319;-72
2023/05/23 10:47:01;;;;;;;10.80;3.67;;;15.80;99.90;;;;;;6214740;23;20016;-72
2023/05/23 10:49:46;;;;;;;11.05;3.50;;;16.40;99.90;;;;;;6214991;23;20008;-72
2023/05/23 10:52:13;;;;;;;13.73;3.42;;;16.30;99.90;;;;;;6163159;23;20389;-72
2023/05/23 10:54:46;;;;;;;10.93;3.33;;;16.00;99.90;;;;;;6187809;23;20024;-72
2023/05/23 10:57:16;;;;;;;13.20;3.70;;;15.90;99.90;;;;;;6214759;23;20055;-72
2023/05/23 10:59:42;;;;;;;10.15;2.90;;;15.90;99.90;;;;;;6215013;23;20021;-72
2023/05/23 11:02:14;;;;;;;10.30;2.67;;;15.90;99.90;;;;;;6214837;23;20096;-72
2023/05/23 11:04:41;;;;;;;12.00;3.47;;;16.00;99.90;;;;;;6215014;23;20027;-72
2023/05/23 11:07:32;;;;;;;9.52;2.38;;;15.90;99.90;;;;;;6215013;23;20341;-72
2023/05/23 11:10:09;;;;;;;10.55;3.50;;;16.50;99.90;;;;;;6216211;23;20071;-72
2023/05/23 11:12:43;;;;;;;10.00;2.50;;;16.40;99.90;;;;;;6216367;23;20017;-72
2023/05/23 11:15:18;;;;;;;15.05;3.25;;;16.50;99.90;;;;;;6217048;23;20021;-72
2023/05/23 11:17:54;;;;;;;7.25;2.40;;;16.30;99.90;;;;;;6215884;23;20028;-72
2023/05/23 11:20:23;;;;;;;12.43;2.75;;;16.20;99.90;;;;;;6216710;23;20508;-72
2023/05/23 11:23:01;;;;;;;12.02;2.97;;;16.50;99.90;;;;;;6215523;23;20516;-72
2023/05/23 11:25:41;;;;;;;11.82;3.22;;;16.50;99.90;;;;;;6214890;23;20031;-72
2023/05/23 11:28:08;;;;;;;6.53;2.40;;;16.60;99.90;;;;;;6217872;23;20027;-72
2023/05/23 11:30:38;;;;;;;9.38;2.65;;;16.50;99.90;;;;;;6216751;23;20074;-72
2023/05/23 11:33:15;;;;;;;14.88;2.58;;;16.20;99.90;;;;;;6216120;23;20040;-71
2023/05/23 11:35:42;;;;;;;6.88;2.13;;;16.50;99.90;;;;;;6216589;23;20017;-72
2023/05/23 11:38:09;;;;;;;9.77;2.90;;;16.70;99.90;;;;;;6214834;23;20345;-72
2023/05/23 11:40:38;;;;;;;7.60;2.03;;;16.60;99.90;;;;;;6215066;23;20016;-73
2023/05/23 11:43:09;;;;;;;8.63;2.13;;;16.50;99.90;;;;;;6214326;23;20486;-73
2023/05/23 11:45:37;;;;;;;8.75;3.03;;;16.30;99.90;;;;;;6186979;23;20255;-72
2023/05/23 11:48:13;;;;;;;9.63;3.05;;;16.70;99.90;;;;;;6188817;23;20012;-73
2023/05/23 11:50:53;;;;;;;11.68;3.05;;;16.70;99.90;;;;;;6216392;23;20020;-73
2023/05/23 11:53:21;;;;;;;7.28;2.00;;;16.20;99.90;;;;;;6214499;23;20013;-72
2023/05/23 11:56:01;;;;;;;9.23;2.35;;;16.00;99.90;;;;;;6216210;23;20009;-72
2023/05/23 11:58:29;;;;;;;10.23;3.03;;;16.10;99.90;;;;;;6216218;23;20353;-71
2023/05/23 12:01:03;;;;;;;6.10;2.58;;;16.40;99.90;;;;;;6189223;23;20051;-71
2023/05/23 12:03:30;;;;;;;11.93;3.08;;;16.40;99.90;;;;;;6215510;23;20059;-72
2023/05/23 12:05:57;;;;;;;9.40;2.65;;;16.80;99.90;;;;;;6216011;23;20016;-72
2023/05/23 12:08:23;;;;;;;8.45;2.95;;;17.40;99.90;;;;;;6214698;23;20104;-72
2023/05/23 12:11:00;;;;;;;11.60;2.90;;;;;;;;;;6214518;23;20507;-72
2023/05/23 12:13:27;;;;;;;15.05;2.83;;;16.70;99.90;;;;;;6215774;23;20122;-72
2023/05/23 12:16:01;;;;;;;10.15;2.85;;;16.20;99.90;;;;;;6216127;23;20066;-72
2023/05/23 12:18:29;;;;;;;7.20;2.85;;;16.10;99.90;;;;;;6189598;23;20016;-72
2023/05/23 12:20:54;;;;;;;9.85;2.38;;;16.10;99.90;;;;;;6189080;23;20017;-72
2023/05/23 12:23:24;;;;;;;10.48;2.53;;;15.80;99.90;;;;;;6214802;23;20019;-72
2023/05/23 12:25:55;;;;;;;12.65;2.80;;;16.00;99.90;;;;;;6215944;23;20039;-72
2023/05/23 12:28:32;;;;;;;9.32;2.28;;;16.10;99.90;;;;;;6189401;23;20016;-72
2023/05/23 12:30:58;;;;;;;10.20;2.65;;;16.00;99.90;;;;;;6215609;23;20337;-72
2023/05/23 12:33:24;;;;;;;8.57;2.25;;;;;;;;;;6214083;23;20016;-72
2023/05/23 12:35:50;;;;;;;11.23;2.85;;;15.50;99.90;;;;;;6215948;23;20024;-72
2023/05/23 12:38:16;;;;;;;11.52;3.60;;;15.50;99.90;;;;;;6215289;23;20204;-72
2023/05/23 12:40:42;;;;;;;10.52;2.63;;;15.50;99.90;;;;;;6215273;23;20024;-71
2023/05/23 12:43:09;;;;;;;12.65;3.17;;;15.70;99.90;;;;;;6214918;23;20556;-72
2023/05/23 12:45:36;;;;;;;9.85;2.33;;;16.20;99.90;;;;;;6215645;23;20055;-72
2023/05/23 12:48:06;;;;;;;8.82;2.50;;;16.20;99.90;;;;;;6215660;23;20012;-71
2023/05/23 12:50:32;;;;;;;9.85;2.80;;;16.00;99.90;;;;;;6215720;23;20035;-71
2023/05/23 12:52:58;;;;;;;7.85;2.85;;;16.20;99.90;;;;;;6215605;23;20017;-72
2023/05/23 12:55:23;;;;;;;9.55;2.47;;;16.20;99.90;;;;;;6214149;23;20270;-72
2023/05/23 12:57:49;;;;;;;10.65;2.80;;;16.30;99.90;;;;;;6213810;23;20055;-72
2023/05/23 13:00:16;;;;;;;8.25;2.35;;;16.30;99.90;;;;;;6214741;23;20028;-72
2023/05/23 13:02:41;;;;;;;7.72;2.50;;;16.30;99.90;;;;;;6213882;23;20009;-72
2023/05/23 13:05:07;;;;;;;10.93;2.80;;;16.30;99.90;;;;;;6215834;23;20034;-72
2023/05/23 13:07:33;;;;;;;11.05;2.33;;;15.90;99.90;;;;;;6215706;23;20036;-72
2023/05/23 13:09:58;;;;;;;11.43;3.03;;;15.50;99.90;;;;;;6214798;23;20029;-72
2023/05/23 13:12:24;;;;;;;10.23;3.05;;;;;;;;;;6215373;23;20059;-72